Date,TemperatureHighF,TemperatureAvgF,TemperatureLowF,DewpointHighF,DewpointAvgF,DewpointLowF,HumidityHigh,HumidityAvg,HumidityLow,PressureMaxIn,PressureMinIn,WindSpeedMaxMPH,WindSpeedAvgMPH,GustSpeedMaxMPH,PrecipitationSumIn
2013-1-1,24.2,10.0,0.9,6.4,-3.2,-99.9,72,60,45,30.72,30.40,6,2,6,0.00
2013-1-2,24.1,9.6,0.3,5.4,-8.0,-99.9,72,57,42,30.80,30.45,6,2,7,0.00
2013-1-3,27.0,13.0,5.0,3.2,-6.0,-99.9,70,50,31,30.88,30.57,5,2,11,0.00
2013-1-4,23.9,12.1,3.0,2.9,-8.2,-99.9,68,49,36,30.82,30.55,7,2,8,0.00
2013-1-5,31.8,16.0,4.3,7.1,-2.5,-99.9,63,49,28,30.83,30.57,7,2,7,0.00
2013-1-6,42.6,28.6,13.5,6.7,-2.8,-99.9,56,32,15,30.68,30.01,6,-19,7,0.00
2013-1-7,41.6,32.7,18.6,11.0,3.2,-2.4,57,30,20,30.18,29.95,5,2,7,0.00
2013-1-8,40.2,24.9,14.6,17.4,7.5,0.1,69,49,25,30.51,30.12,4,2,6,0.00
2013-1-9,46.2,32.3,18.0,13.3,2.8,-99.9,64,36,22,30.68,30.26,8,-4,11,0.00
2013-1-10,39.9,32.7,26.1,20.2,6.2,-99.9,64,40,22,30.20,29.72,5,2,0,0.00
2013-1-11,31.5,15.4,0.5,23.0,1.7,-99.9,87,58,43,30.34,29.60,10,5,0,0.02
2013-1-12,15.4,3.0,-4.6,-2.3,-9.9,-16.6,65,55,38,30.47,30.31,5,2,11,0.00
2013-1-13,15.9,6.3,-2.8,1.9,-31.9,-99.9,69,41,50,30.46,30.17,5,-99,6,0.00
2013-1-14,18.1,7.4,-3.9,1.5,-18.6,-99.9,66,48,44,30.58,30.18,6,-84,10,0.00
2013-1-15,22.2,7.6,-10.0,1.3,-7.9,-99.9,66,50,34,30.88,30.51,6,2,10,0.00
2013-1-16,32.1,9.2,2.0,7.7,-15.6,-99.9,72,51,33,30.89,30.64,7,-148,8,0.00
2013-1-17,42.5,27.1,12.4,19.0,8.3,-99.9,67,51,29,30.86,30.53,7,2,10,0.00
2013-1-18,40.1,27.9,17.5,16.7,12.7,7.0,70,54,34,30.67,30.41,6,2,7,0.00
2013-1-19,38.9,23.9,14.3,13.8,5.8,-99.9,71,53,28,30.73,30.47,8,2,8,0.00
2013-1-20,39.5,25.3,15.6,16.4,3.7,-99.9,67,47,25,30.67,30.30,8,-20,10,0.00
2013-1-21,39.1,24.5,15.9,15.7,3.6,-99.9,69,50,29,30.63,30.22,6,-62,8,0.00
2013-1-22,44.1,30.1,18.3,14.7,8.4,0.6,65,43,18,30.59,30.42,7,2,12,0.00
2013-1-23,54.1,35.4,22.1,16.3,7.6,0.0,50,33,11,30.64,30.30,6,1,7,0.00
2013-1-24,50.8,39.9,32.2,28.5,18.4,10.5,74,44,24,30.42,30.25,6,1,7,0.00
2013-1-25,42.5,38.4,35.6,35.4,32.0,29.9,85,78,66,30.34,30.22,4,1,6,0.00
2013-1-26,39.3,37.1,34.1,33.5,31.7,29.2,85,81,73,30.22,29.90,11,2,11,0.03
2013-1-27,42.8,37.5,33.4,33.5,31.3,29.7,86,78,63,30.06,29.88,3,1,3,0.01
2013-1-28,36.5,29.5,22.7,32.1,24.6,17.2,88,82,71,29.94,29.81,0,0,0,0.46
2013-1-29,25.7,16.5,9.3,19.5,8.0,1.8,80,69,48,30.34,29.89,9,1,16,0.01
2013-1-30,27.2,20.8,10.5,20.0,9.3,-1.3,74,61,42,30.50,30.32,7,2,12,0.00
2013-1-31,38.5,30.5,25.7,21.4,18.0,9.5,73,60,41,30.46,30.29,9,3,12,0.00
2013-2-1,41.1,30.1,18.3,19.7,9.1,-99.9,70,51,27,30.47,30.34,7,2,4,0.00
2013-2-2,42.3,30.1,17.3,21.4,11.5,3.5,72,48,25,30.66,30.42,7,2,7,0.00
2013-2-3,40.8,32.1,24.4,24.7,19.2,13.0,79,60,37,30.45,30.12,8,2,13,0.00
2013-2-4,41.6,29.6,16.5,24.2,15.3,7.7,77,57,28,30.35,30.17,8,2,8,0.00
2013-2-5,45.2,31.7,18.6,20.8,14.5,6.3,71,51,26,30.36,30.09,8,2,8,0.00
2013-2-6,44.8,33.3,23.9,22.7,18.6,14.9,73,56,32,30.16,30.01,9,1,9,0.00
2013-2-7,44.6,30.3,17.3,19.6,6.6,-99.9,77,45,28,30.35,29.97,8,-60,10,0.00
2013-2-8,47.0,37.5,28.5,19.9,12.3,4.4,52,36,17,30.08,29.68,13,5,16,0.00
2013-2-9,30.4,22.4,18.1,19.1,16.3,11.4,83,77,52,29.94,29.65,12,3,5,0.12
2013-2-10,26.3,21.6,19.2,18.9,15.5,12.5,82,77,61,30.13,29.94,8,2,8,0.01
2013-2-11,27.6,19.8,6.9,15.9,10.2,-2.4,79,66,53,30.37,30.11,6,2,8,0.05
2013-2-12,27.5,14.1,0.3,10.4,2.4,-8.6,70,60,42,30.60,30.34,6,2,10,0.00
2013-2-13,34.3,19.6,6.7,18.0,8.4,-1.6,76,62,45,30.55,30.35,8,2,11,0.00
2013-2-14,41.9,27.5,13.8,15.3,9.4,1.7,77,48,24,30.45,30.22,12,3,12,0.00
2013-2-15,39.2,27.6,19.5,9.1,1.1,-99.9,55,36,23,30.58,30.32,6,-39,11,0.00
2013-2-16,43.1,32.2,19.2,14.2,6.5,-1.1,48,34,24,30.60,30.30,7,2,10,0.00
2013-2-17,45.4,32.0,20.2,14.1,3.0,-99.9,53,33,15,30.31,29.80,9,-19,16,0.00
2013-2-18,34.4,24.6,16.9,15.1,-0.7,-99.9,54,36,17,30.38,29.69,11,-18,12,0.00
2013-2-19,43.9,27.8,15.7,11.1,-12.9,-99.9,48,23,13,30.30,29.64,7,-104,11,0.00
2013-2-20,34.0,18.4,17.5,23.4,-20.1,-99.9,87,46,39,29.83,29.17,12,-317,14,0.11
2013-2-21,29.0,12.6,22.1,21.8,-40.7,-99.9,84,38,66,30.09,29.32,10,-477,10,0.06
2013-2-22,28.8,20.9,15.2,17.7,10.6,2.2,80,65,34,30.30,30.02,8,2,10,0.03
2013-2-23,33.8,23.0,11.4,21.1,6.5,-1.1,85,51,31,30.35,29.91,6,2,10,0.01
2013-2-24,28.7,17.1,1.8,11.8,3.4,-6.8,78,55,37,30.26,29.94,6,2,8,0.01
2013-2-25,35.3,20.4,2.4,9.2,1.8,-6.4,69,47,25,30.47,30.13,10,3,14,0.00
2013-2-26,25.8,20.5,12.3,13.5,5.7,-0.8,66,53,38,30.38,30.02,13,4,26,0.00
2013-2-27,32.5,19.0,3.7,3.9,-1.7,-7.0,69,43,21,30.64,30.40,7,2,12,0.00
2013-2-28,40.5,18.4,6.0,7.6,-21.3,-99.9,62,32,19,30.77,30.35,9,-189,9,0.00
2013-3-1,45.7,35.0,28.8,18.9,9.7,-99.9,56,39,31,30.53,30.25,11,-17,16,0.00
2013-3-2,52.0,37.1,22.7,23.7,16.1,-99.9,70,47,30,30.57,30.23,7,2,12,0.00
2013-3-3,47.9,40.4,31.2,25.6,20.0,15.1,59,45,28,30.22,29.80,5,1,12,0.00
2013-3-4,45.8,37.3,31.5,31.6,22.3,2.7,80,57,27,30.23,29.79,8,2,10,0.06
2013-3-5,52.3,37.0,20.8,11.1,3.5,-13.3,50,26,13,30.47,30.15,7,2,11,0.00
2013-3-6,53.9,42.3,34.0,20.8,13.9,2.8,53,33,18,30.18,29.92,7,2,16,0.00
2013-3-7,55.9,42.1,29.1,19.9,14.4,4.8,54,36,16,30.17,29.91,10,2,12,0.00
2013-3-8,39.9,34.1,29.4,29.0,23.0,13.3,88,65,36,30.01,29.78,7,2,7,0.01
2013-3-9,31.5,27.5,26.3,26.0,20.4,18.6,83,74,66,30.18,29.75,4,3,2,0.14
2013-3-10,45.5,27.6,12.4,17.0,10.7,4.2,70,51,28,30.40,30.17,6,2,0,0.00
2013-3-11,48.6,31.3,18.1,22.1,14.1,7.9,69,51,32,30.36,30.15,5,2,17,0.00
2013-3-12,53.1,41.0,30.6,25.2,20.1,15.5,60,44,29,30.32,30.09,9,3,10,0.00
2013-3-13,56.9,44.7,33.5,23.3,18.9,13.8,59,37,22,30.41,30.21,11,3,16,0.00
2013-3-14,66.0,51.1,34.3,24.7,17.4,6.4,55,30,10,30.35,30.13,6,2,17,0.00
2013-3-15,64.2,49.7,36.6,23.6,20.0,15.6,52,33,16,30.24,29.90,5,2,7,0.00
2013-3-16,57.3,45.8,35.8,28.1,23.4,18.4,60,42,27,29.93,29.76,6,2,17,0.00
2013-3-17,50.2,40.7,33.4,27.5,18.9,7.6,65,44,22,29.86,29.72,12,3,14,0.00
2013-3-18,50.7,38.7,31.6,13.1,6.7,3.0,37,27,16,30.11,29.85,9,3,14,0.00
2013-3-19,49.6,40.6,31.5,15.4,9.7,3.1,46,29,19,30.22,30.01,6,3,7,0.00
2013-3-20,48.0,39.1,26.6,26.6,15.7,3.9,56,39,23,30.33,29.85,6,2,10,0.00
2013-3-21,51.6,43.4,36.5,26.9,15.9,-2.2,57,36,18,29.85,29.64,12,3,14,0.00
2013-3-22,49.4,41.3,30.7,9.2,-1.3,-8.8,24,17,9,29.83,29.64,19,6,19,0.00
2013-3-23,30.0,23.1,16.4,5.1,-4.6,-11.2,49,30,17,30.35,29.75,9,4,14,0.00
2013-3-24,35.2,24.9,16.1,-0.4,-4.6,-8.4,40,28,17,30.38,30.16,12,4,19,0.00
2013-3-25,43.9,31.4,18.1,11.6,-1.6,-12.5,40,25,11,30.39,30.16,8,2,11,0.00
2013-3-26,51.1,40.1,26.4,15.8,10.8,7.4,53,32,17,30.25,29.96,7,2,8,0.00
2013-3-27,57.5,45.1,32.2,17.1,11.5,3.7,50,28,12,30.11,29.91,11,3,13,0.00
2013-3-28,59.0,46.9,35.6,18.0,13.6,9.6,44,27,16,30.14,29.95,10,2,12,0.00
2013-3-29,61.6,47.6,37.9,22.5,19.2,14.1,49,34,21,30.19,30.03,7,2,16,0.00
2013-3-30,59.0,47.8,35.9,24.3,20.2,17.9,52,35,21,30.21,29.98,6,2,11,0.00
2013-3-31,61.2,47.3,31.3,23.7,19.5,13.4,57,36,16,30.15,29.91,10,2,16,0.00
2013-4-1,58.0,47.2,35.6,26.8,15.0,-99.9,62,32,14,30.05,29.80,15,4,17,0.00
2013-4-2,50.7,41.2,30.1,22.3,16.5,5.7,58,38,19,30.01,29.81,8,2,10,0.00
2013-4-3,60.1,45.1,26.1,22.9,16.9,5.3,67,36,11,30.19,29.99,14,3,16,0.00
2013-4-4,63.1,48.7,31.5,17.6,12.9,6.1,38,24,15,30.25,30.02,5,2,5,0.00
2013-4-5,59.5,46.7,41.8,22.1,14.8,12.2,35,28,19,30.00,29.75,15,2,26,0.00
2013-4-6,59.2,50.6,38.6,24.1,15.8,11.2,39,26,16,29.95,29.75,9,3,28,0.00
2013-4-7,59.6,49.6,38.8,20.1,15.5,9.6,41,26,16,29.81,29.66,11,3,19,0.00
2013-4-8,54.7,42.1,30.7,31.1,20.1,12.0,76,44,22,29.69,29.25,19,4,36,0.04
2013-4-9,34.3,30.8,24.1,26.9,23.7,17.0,84,75,64,29.97,29.35,11,3,13,0.20
2013-4-10,40.1,28.4,17.3,23.4,14.1,8.8,77,56,40,30.17,29.97,8,3,14,0.00
2013-4-11,45.2,32.8,27.6,31.8,16.3,9.9,65,51,44,30.15,29.87,11,2,18,0.01
2013-4-12,56.9,40.9,30.3,25.8,19.6,15.8,67,46,20,29.98,29.82,11,3,21,0.00
2013-4-13,57.8,47.1,29.7,17.7,14.7,9.5,53,30,17,29.94,29.44,16,5,32,0.00
2013-4-14,54.2,46.0,36.8,30.8,20.9,15.2,64,39,23,29.67,29.43,13,4,25,0.00
2013-4-15,59.2,49.0,35.6,24.1,19.4,11.2,57,33,15,29.67,29.46,16,6,24,0.00
2013-4-16,59.9,49.0,38.3,23.1,16.4,7.3,49,29,13,29.67,29.46,21,8,26,0.00
2013-4-17,43.1,33.3,21.9,22.4,15.8,8.2,73,49,33,30.17,29.55,14,5,16,0.00
2013-4-18,36.6,25.5,16.4,7.4,-1.0,-99.9,57,36,17,30.43,30.12,7,-16,13,0.00
2013-4-19,48.2,34.2,17.5,10.3,2.3,-99.9,44,28,19,30.52,30.05,10,-17,12,0.00
2013-4-20,50.1,42.5,34.4,26.7,20.4,10.7,52,41,29,30.07,29.92,7,3,14,0.00
2013-4-21,56.0,44.7,29.4,20.5,14.4,3.7,58,32,12,30.19,29.98,9,4,14,0.00
2013-4-22,64.2,51.1,37.8,18.9,15.4,10.8,41,26,13,29.98,29.63,10,3,16,0.00
2013-4-23,48.9,41.5,30.4,20.8,9.0,-7.5,50,28,15,30.17,29.62,12,4,16,0.00
2013-4-24,55.4,40.8,22.9,7.8,-1.2,-12.9,25,17,11,30.23,30.06,10,3,10,0.00
2013-4-25,61.2,50.9,36.6,22.9,11.6,0.4,38,21,14,30.10,29.75,13,5,19,0.00
2013-4-26,62.3,46.2,31.9,28.6,8.8,-99.9,62,33,14,30.22,29.90,14,-18,14,0.00
2013-4-27,66.9,49.5,33.8,20.6,4.9,-99.9,42,21,5,30.23,29.88,11,-39,16,0.00
2013-4-28,68.4,55.6,39.2,18.9,13.0,6.3,29,19,13,30.05,29.75,10,3,22,0.00
2013-4-29,70.4,57.5,43.5,24.4,16.0,12.1,32,21,11,29.84,29.55,11,3,17,0.00
2013-4-30,71.3,60.1,45.1,20.4,13.9,4.8,32,17,9,29.68,29.44,18,7,21,0.00
2013-5-1,60.1,49.4,37.5,27.8,7.1,-14.2,54,21,7,30.21,29.52,11,5,12,0.00
2013-5-2,55.9,39.9,20.8,6.3,0.6,-4.2,40,21,9,30.59,30.20,10,3,14,0.00
2013-5-3,63.1,43.7,28.1,9.6,4.0,0.4,33,20,11,30.40,29.92,7,2,20,0.00
2013-5-4,67.1,51.7,30.7,10.8,6.2,2.2,31,17,9,29.95,29.73,12,4,16,0.00
2013-5-5,64.2,54.8,48.5,21.8,13.5,4.2,29,19,14,29.95,29.72,12,4,17,0.00
2013-5-6,55.3,46.6,39.3,37.0,32.6,23.5,82,60,32,30.00,29.80,9,3,13,0.12
2013-6-1,72.8,66.0,52.3,18.0,12.2,5.1,19,12,9,29.97,29.90,8,5,0,0.00
2013-6-2,76.7,62.6,42.9,25.4,17.2,8.9,27,18,9,29.96,29.62,6,3,0,0.00
2013-6-3,77.4,62.7,48.0,31.2,9.3,-99.9,41,23,15,29.84,29.67,9,3,0,0.00
2013-6-4,79.0,64.2,48.9,32.0,18.6,-99.9,40,23,8,29.79,29.69,7,3,0,0.00
2013-6-5,55.9,52.8,47.9,20.5,19.8,18.8,33,27,25,29.77,29.74,3,2,0,0.00
2013-6-8,84.3,75.0,63.4,27.5,24.1,22.1,22,15,11,29.69,29.59,11,4,32,0.00
2013-6-9,90.1,73.0,52.9,28.0,23.0,-3.5,36,17,3,29.77,29.60,9,3,14,0.00
2013-6-10,86.1,73.1,52.8,32.6,23.6,18.4,27,16,10,29.77,29.57,12,4,14,0.00
2013-6-11,80.7,67.6,48.6,28.6,17.7,3.4,35,16,5,29.89,29.69,12,4,25,0.00
2013-6-12,82.2,68.8,52.3,31.9,21.0,10.9,35,18,7,29.93,29.78,10,4,14,0.00
2013-6-13,83.2,70.8,55.7,35.8,25.6,15.7,34,19,8,29.85,29.64,14,3,14,0.00
2013-6-14,81.1,70.3,55.1,38.4,22.3,7.3,45,19,6,29.77,29.64,9,3,14,0.00
2013-6-15,77.9,63.8,49.9,37.5,24.1,8.2,43,23,13,30.03,29.73,8,3,21,0.00
2013-6-16,78.5,66.3,50.8,41.9,32.5,25.8,58,31,17,30.00,29.75,8,3,14,0.00
2013-6-17,79.2,66.5,51.9,34.4,24.4,7.3,43,22,7,29.89,29.70,10,4,17,0.00
2013-6-18,79.0,63.5,51.7,41.6,21.6,2.9,42,22,6,29.85,29.65,10,4,17,0.00
2013-6-19,79.9,65.3,45.7,27.7,2.1,-32.0,39,12,1,29.77,29.57,17,5,18,0.00
2013-6-20,79.6,65.1,47.0,26.9,14.0,-2.1,31,15,4,29.79,29.63,12,4,17,0.00
2013-6-21,78.3,64.2,45.8,27.5,16.2,5.2,37,17,7,29.85,29.67,11,4,14,0.00
2013-6-22,77.4,63.4,46.2,26.8,16.3,10.1,38,18,8,29.84,29.66,11,4,14,0.00
2013-6-23,77.7,64.4,46.5,23.4,12.1,-99.9,36,16,7,29.77,29.58,11,4,14,0.00
2013-6-24,74.7,63.4,48.9,27.6,7.2,-99.9,37,16,8,29.82,29.66,15,5,17,0.00
2013-6-25,79.2,64.4,48.2,31.5,20.5,-99.9,37,21,14,29.90,29.78,6,2,10,0.00
2013-6-26,87.2,70.2,52.5,33.5,18.0,-99.9,41,21,12,29.92,29.75,8,2,12,0.00
2013-6-27,95.1,74.5,55.9,41.8,23.5,-99.9,40,21,11,29.92,29.74,11,3,12,0.00
2013-6-28,90.5,76.3,61.2,38.2,19.3,-99.9,32,19,13,29.94,29.71,10,3,14,0.00
2013-6-29,87.4,72.0,59.2,46.5,37.7,31.3,48,30,14,29.90,29.73,9,3,12,0.00
2013-6-30,88.0,72.6,55.3,45.2,38.6,32.7,52,31,15,29.96,29.64,8,3,11,0.00
2013-7-1,88.2,71.6,54.4,43.6,37.6,27.9,55,32,13,29.93,29.71,7,3,11,0.01
2013-7-2,84.1,70.3,58.7,47.1,40.7,31.6,59,37,16,29.93,29.68,7,3,10,0.02
2013-7-3,87.8,70.9,58.9,46.5,39.7,28.9,59,36,12,29.82,29.57,8,4,10,0.00
2013-7-4,86.7,71.6,56.9,42.8,37.7,31.4,50,31,15,29.71,29.57,7,2,11,0.00
2013-7-5,84.1,73.3,61.8,43.8,36.6,-99.9,41,30,21,29.70,29.51,8,3,12,0.00
2013-7-6,85.7,67.2,55.6,52.2,42.8,-99.9,81,52,19,29.85,29.61,11,3,14,0.04
2013-7-7,85.9,71.3,54.5,52.1,44.4,37.5,79,44,21,29.85,29.65,10,2,12,0.00
2013-7-8,84.5,71.3,55.9,47.0,41.2,29.5,66,37,14,29.84,29.69,9,2,12,0.00
2013-7-9,88.0,76.2,58.6,46.4,39.3,29.6,56,29,13,29.89,29.73,11,3,12,0.00
2013-7-10,91.0,75.7,67.1,47.5,40.9,34.7,48,30,14,29.82,29.63,13,5,17,0.00
2013-7-11,83.2,69.1,58.6,52.5,44.3,40.5,76,43,24,29.90,29.65,9,2,18,0.04
2013-7-12,80.3,64.6,56.3,56.7,51.5,41.7,87,67,27,29.88,29.73,9,2,14,0.38
2013-7-13,83.0,67.7,54.5,55.7,47.9,39.6,87,55,24,29.96,29.75,6,2,10,0.00
2013-7-14,83.2,69.1,59.9,54.1,48.7,43.4,73,50,27,29.84,29.70,8,2,12,0.03
2013-7-15,70.9,62.0,58.6,54.5,51.4,47.9,83,69,45,29.89,29.74,8,3,12,0.14
2013-7-16,72.5,62.1,55.4,54.7,50.8,48.7,85,68,44,30.00,29.86,5,2,7,0.00
2013-7-17,76.5,65.1,59.0,52.3,41.6,-99.9,70,53,34,30.07,29.89,10,3,11,0.00
2013-7-18,80.5,68.2,56.0,50.5,40.9,-99.9,72,46,30,30.07,29.78,8,-19,14,0.00
2013-7-19,76.0,65.4,58.9,58.4,45.4,-99.9,83,55,34,29.96,29.76,8,2,10,0.32
2013-7-20,79.6,65.0,54.4,53.7,42.4,-99.9,84,58,27,29.94,29.69,9,2,10,0.02
2013-7-21,79.6,63.5,53.2,53.0,47.0,40.4,75,57,30,29.98,29.70,11,3,12,0.19
2013-7-22,82.8,67.1,55.0,53.0,46.2,40.3,74,49,26,29.96,29.73,8,2,11,0.04
2013-7-23,79.6,69.6,59.3,50.6,45.2,37.2,58,43,28,29.87,29.71,4,1,6,0.00
2013-7-24,85.9,61.6,59.0,49.7,21.3,-99.9,61,32,18,29.90,29.51,9,-146,13,0.00
2013-7-25,81.8,40.4,61.5,56.9,-20.7,-99.9,62,21,22,29.95,29.59,9,-456,16,0.01
2013-7-26,85.5,40.9,68.4,57.9,-24.1,-99.9,61,17,18,29.98,29.59,8,-475,13,0.01
2013-7-27,78.3,33.5,63.2,47.3,-33.4,-99.9,53,17,30,30.06,29.60,6,-540,10,0.00
2013-7-28,71.8,51.5,54.7,57.3,22.8,-99.9,85,53,35,29.88,29.58,9,-177,17,0.50
2013-7-29,77.4,63.2,52.6,52.1,46.1,34.8,83,58,27,30.00,29.80,9,2,12,0.00
2013-7-30,83.0,66.9,53.5,47.0,41.5,34.6,71,43,20,30.06,29.93,9,2,14,0.00
2013-7-31,87.2,71.0,56.2,42.9,36.5,31.4,52,31,15,30.07,29.83,7,3,12,0.00
2013-8-1,76.8,66.4,59.3,52.7,45.2,35.1,65,47,32,29.98,29.79,8,3,12,0.00
2013-8-2,83.8,68.2,55.6,57.8,47.3,-99.9,82,52,25,29.94,29.73,9,3,16,0.12
2013-8-3,80.9,64.6,54.5,57.5,46.2,-99.9,85,60,28,29.96,29.83,9,2,17,0.20
2013-8-4,82.0,55.7,54.2,52.4,12.3,-99.9,79,34,26,29.97,29.63,12,-204,12,0.03
2013-8-5,79.9,64.0,54.2,52.8,41.1,-99.9,78,52,25,29.99,29.66,10,-21,12,0.03
2013-8-6,77.2,52.4,53.8,50.6,11.7,-99.9,77,39,32,29.94,29.65,10,-194,14,0.00
2013-8-7,70.4,59.4,54.8,52.8,48.2,43.1,85,67,45,29.94,29.78,6,2,10,0.11
2013-8-8,71.8,57.9,51.1,49.4,46.2,40.7,86,67,39,30.00,29.85,8,2,11,0.13
2013-8-9,75.3,62.2,46.8,47.6,39.8,33.9,77,47,24,30.03,29.88,9,3,16,0.00
2013-8-10,74.9,61.6,51.4,49.2,40.8,35.7,83,48,28,30.21,29.90,12,5,17,0.21
2013-8-11,77.6,62.6,46.7,46.2,39.8,33.3,76,46,22,30.21,29.87,9,2,14,0.00
2013-8-12,77.9,64.5,53.1,47.4,40.4,34.6,68,43,27,29.98,29.85,6,2,12,0.00
2013-8-13,79.9,64.9,50.5,47.5,36.3,-99.9,66,39,17,30.06,29.88,10,3,13,0.00
2013-8-14,82.6,65.9,49.5,42.8,29.6,-99.9,51,30,11,30.03,29.83,9,3,11,0.00
2013-8-15,85.9,67.8,51.3,38.4,25.2,-99.9,43,25,12,29.99,29.82,9,3,17,0.00
2013-8-16,87.4,69.1,53.2,42.0,28.9,-99.9,46,27,9,30.01,29.80,14,3,19,0.00
2013-8-17,83.0,68.8,56.3,45.3,34.8,-99.9,48,32,21,30.01,29.80,9,2,14,0.00
2013-8-18,79.8,68.6,56.7,46.0,42.4,39.8,58,40,26,29.97,29.81,9,2,12,0.00
2013-8-19,81.2,68.0,58.6,49.9,42.8,39.5,63,41,25,29.95,29.75,10,2,12,0.06
2013-8-20,83.4,69.1,55.7,48.4,38.2,-99.9,67,42,25,29.95,29.75,7,2,0,0.00
2013-8-21,78.1,62.4,56.2,51.1,32.6,-99.9,77,51,27,29.99,29.77,6,3,0,0.58
2013-8-22,79.2,63.5,53.1,49.5,31.9,-99.9,77,51,28,30.04,29.82,8,3,0,0.00
2013-8-23,80.7,65.5,59.2,44.3,39.6,-99.9,54,43,18,29.89,29.68,8,3,0,0.00
2013-8-24,71.5,63.2,55.9,50.1,38.5,-99.9,77,50,35,29.96,29.78,6,3,0,0.14
2013-8-25,66.4,60.3,55.9,51.5,40.7,-99.9,77,63,56,30.10,29.94,7,3,0,0.64
2013-8-26,75.3,63.8,57.0,52.5,50.1,43.4,79,64,36,30.11,29.89,6,2,8,0.06
2013-8-27,79.9,66.2,54.7,53.0,48.0,42.3,75,54,27,29.99,29.79,8,2,19,0.00
2013-8-28,82.2,67.3,53.2,51.3,44.8,40.3,71,47,24,29.94,29.80,7,2,11,0.00
2013-8-29,80.5,67.3,55.3,53.0,46.0,40.5,67,48,30,30.03,29.85,7,2,10,0.02
2013-8-30,84.9,67.9,55.9,52.6,44.9,37.3,68,46,23,30.05,29.81,8,2,12,0.00
2013-8-31,81.2,67.4,54.1,50.3,46.7,41.8,72,49,31,29.94,29.74,8,2,19,0.02
2013-9-1,82.2,69.0,55.0,48.2,41.9,-99.9,68,42,23,29.92,29.71,13,3,14,0.12
2013-9-2,81.2,64.9,57.3,49.4,29.8,-99.9,66,42,26,30.03,29.75,12,-38,16,0.02
2013-9-3,77.9,66.2,56.3,53.2,36.3,-99.9,63,46,33,29.98,29.83,6,1,14,0.00
2013-9-4,85.1,69.0,54.1,50.1,33.7,-99.9,66,42,25,30.07,29.82,8,2,8,0.00
2013-9-5,84.1,71.6,60.9,47.0,31.0,-99.9,48,30,20,30.01,29.81,10,4,22,0.00
2013-9-6,84.1,70.0,56.6,40.3,22.6,-99.9,40,25,14,30.02,29.76,10,2,14,0.00
2013-9-7,83.8,71.1,57.0,43.8,26.7,-99.9,45,26,17,29.90,29.69,11,4,16,0.00
2013-9-8,74.2,65.6,54.4,49.1,31.9,-99.9,61,43,32,29.88,29.67,12,2,14,0.00
2013-9-9,72.3,58.6,52.3,51.0,42.7,-99.9,88,63,43,29.88,29.62,15,2,19,0.74
2013-9-10,59.0,55.9,52.6,51.7,49.2,47.0,85,78,70,29.94,29.73,7,3,14,0.33
2013-9-11,70.1,60.0,54.4,52.3,35.6,-99.9,84,62,35,29.98,29.87,8,2,18,0.10
2013-9-12,66.8,57.4,50.5,53.8,47.1,40.6,85,69,49,30.08,29.86,8,3,18,0.53
2013-9-13,71.3,58.6,49.4,49.8,47.4,45.4,86,68,41,29.95,29.77,6,2,17,0.00
2013-9-14,67.1,55.0,51.0,47.8,46.6,44.6,81,74,46,29.98,29.71,7,3,17,0.31
2013-9-15,67.8,55.9,49.9,50.5,39.2,-99.9,82,65,40,29.97,29.84,9,2,14,0.00
2013-9-16,73.9,61.3,54.2,48.0,39.0,-99.9,71,54,35,30.03,29.83,6,2,14,0.00
2013-9-17,72.5,62.5,53.6,48.3,39.4,-99.9,73,54,35,29.95,29.70,6,3,17,0.00
2013-9-18,70.3,59.2,52.9,50.9,48.2,45.0,83,68,42,29.88,29.64,8,2,17,0.16
2013-9-19,72.0,58.4,48.2,49.9,33.9,-99.9,80,51,23,29.93,29.72,7,2,17,0.00
2013-9-20,74.2,57.6,42.6,38.7,15.6,-99.9,65,36,21,30.05,29.87,7,2,17,0.00
2013-9-21,70.3,61.4,50.8,45.6,33.5,-99.9,69,43,31,29.96,29.69,7,2,17,0.00
2013-9-22,59.8,52.8,41.9,49.8,45.1,32.9,85,75,54,29.71,29.48,8,3,32,0.89
2013-9-23,62.3,50.5,38.3,35.6,27.1,-99.9,82,52,29,30.09,29.74,5,3,32,0.00
2013-9-24,69.9,52.1,36.2,38.1,30.2,21.8,71,48,21,30.21,29.85,4,2,14,0.00
2013-9-25,69.8,58.2,44.9,33.5,28.5,22.5,57,34,20,29.85,29.54,13,4,16,0.00
2013-9-26,68.4,57.3,50.2,29.1,17.8,-99.9,34,26,18,29.71,29.54,9,4,16,0.00
2013-9-27,57.3,44.9,38.8,38.8,21.8,-99.9,72,49,34,30.15,29.54,7,3,16,0.14
2013-9-28,58.3,42.7,27.5,28.6,20.3,12.9,63,43,24,30.37,30.15,7,2,16,0.00
2013-9-29,64.3,47.7,33.5,26.3,21.4,13.7,67,39,17,30.32,30.06,7,2,16,0.00
2013-9-30,67.3,53.4,40.5,31.0,25.1,21.2,56,36,19,30.10,29.87,8,2,16,0.00
2013-10-1,70.3,55.2,40.3,27.5,17.0,-99.9,48,29,16,30.03,29.86,7,4,16,0.00
2013-10-2,66.1,52.0,37.8,26.8,21.3,15.3,49,32,15,30.06,29.83,7,2,16,0.00
2013-10-3,62.4,51.0,36.5,29.3,25.7,22.2,62,39,25,29.94,29.64,11,4,17,0.00
2013-10-4,45.7,37.0,27.9,25.1,15.5,7.7,66,44,24,30.34,29.79,13,4,26,0.00
2013-10-5,51.9,38.4,25.8,19.0,12.7,5.5,59,36,19,30.47,30.23,9,4,26,0.00
2013-10-6,63.1,43.5,27.8,23.0,16.8,9.9,53,36,18,30.45,30.22,7,2,26,0.00
2013-10-7,68.9,50.7,35.2,25.8,22.0,15.8,56,36,16,30.31,29.99,6,2,26,0.00
2013-10-8,63.5,52.7,40.1,26.2,21.9,16.6,45,31,22,30.07,29.70,13,4,26,0.00
2013-10-9,60.1,49.4,37.6,33.6,27.5,16.7,57,45,19,29.90,29.71,7,4,26,0.00
2013-10-10,51.0,46.9,32.4,36.4,31.6,22.2,84,57,43,30.05,29.57,7,3,19,0.73
2013-10-11,50.4,39.1,33.5,33.5,29.9,27.1,78,70,42,30.21,30.02,5,2,19,0.00
2013-10-12,53.9,42.8,31.0,27.8,25.2,22.7,73,52,35,30.24,30.03,7,2,26,0.00
2013-10-13,59.6,50.0,43.5,37.1,30.1,25.8,70,47,33,30.06,29.76,9,4,26,0.01
2013-10-14,49.4,41.9,31.9,28.2,25.3,21.0,72,53,37,30.19,29.86,6,2,26,0.00
2013-10-15,49.6,38.2,26.4,24.2,19.3,14.3,68,48,30,30.22,30.04,6,2,26,0.00
2013-10-16,47.1,37.4,25.3,25.2,18.9,-99.9,84,52,30,30.31,30.10,10,3,26,0.00
2013-10-17,50.8,38.6,25.4,16.3,8.2,-99.9,55,35,20,30.30,30.02,9,3,13,0.00
2013-10-18,52.0,41.6,33.2,15.1,7.5,-99.9,44,28,17,30.23,29.94,7,3,19,0.00
2013-10-19,53.6,39.8,25.4,18.8,12.7,5.3,46,33,24,30.35,30.08,11,3,14,0.00
2013-10-20,57.5,45.9,36.6,19.1,14.6,11.5,41,29,17,30.08,29.83,11,3,11,0.00
2013-10-21,57.3,43.5,31.9,19.0,14.9,9.7,52,33,15,30.26,29.95,9,3,13,0.00
2013-10-22,61.5,43.2,30.6,21.3,13.9,-99.9,52,35,19,30.34,30.16,7,2,10,0.00
2013-10-23,63.9,47.4,32.2,22.1,16.2,-99.9,54,34,16,30.33,30.02,7,2,12,0.00
2013-10-24,65.0,51.3,37.8,27.8,17.0,-99.9,46,29,18,30.17,29.99,8,2,13,0.00
2013-10-25,55.1,44.0,37.3,36.0,32.9,30.7,78,65,43,30.22,30.01,7,2,10,0.25
2013-10-26,55.6,45.3,35.8,36.0,31.3,27.4,73,60,35,30.35,30.15,5,2,5,0.00
2013-10-27,59.2,45.7,33.7,32.0,27.8,23.8,73,52,30,30.27,29.78,8,2,8,0.00
2013-10-28,56.0,49.1,41.9,27.6,22.1,15.2,55,36,21,29.89,29.69,11,3,14,0.00
2013-10-29,45.2,40.0,32.4,32.0,27.8,17.8,82,63,33,30.00,29.80,9,3,12,0.20
2013-10-30,36.5,31.9,27.2,29.1,24.6,18.5,80,74,62,30.13,29.97,5,1,5,0.29
2013-10-31,39.5,33.0,26.7,26.1,20.5,17.6,72,60,46,30.26,30.09,8,4,13,0.00
2013-11-1,50.7,39.6,33.7,25.9,22.1,19.7,61,50,35,30.36,30.15,9,3,18,0.00
2013-11-2,60.2,44.5,28.2,22.0,17.5,12.5,66,37,18,30.42,29.91,8,2,10,0.00
2013-11-3,52.8,42.7,33.2,23.3,18.3,13.8,55,38,21,29.94,29.74,11,3,13,0.00
2013-11-4,48.2,38.2,26.4,27.0,19.6,14.1,71,49,28,30.04,29.85,7,2,10,0.00
2013-11-5,37.6,30.3,17.3,26.4,12.9,3.4,74,50,27,30.48,29.86,13,4,18,0.00
2013-11-6,43.6,29.3,14.4,15.1,7.6,0.4,62,42,21,30.67,30.47,10,3,10,0.00
2013-11-7,55.4,38.0,25.0,18.0,14.5,8.4,61,40,22,30.64,30.17,7,2,8,0.00
2013-11-8,56.2,42.1,30.9,17.9,14.1,9.9,54,34,19,30.37,30.03,6,2,11,0.00
2013-11-9,58.0,42.8,30.3,17.5,13.7,10.8,49,33,17,30.36,30.06,6,2,8,0.00
2013-11-10,60.7,44.2,31.5,17.7,14.2,9.7,45,31,16,30.44,30.16,6,2,10,0.00
2013-11-11,60.2,43.4,30.3,18.4,14.8,11.5,47,34,16,30.47,30.22,10,3,12,0.00
2013-11-12,61.5,44.5,33.4,18.9,14.7,8.0,53,31,18,30.64,30.32,6,2,10,0.00
2013-11-13,53.1,42.6,30.7,26.5,21.2,16.7,61,44,28,30.51,30.15,5,2,7,0.00
2013-11-14,52.2,39.7,29.0,23.2,19.8,13.7,62,46,29,30.20,29.94,7,2,7,0.00
2013-11-15,50.2,35.9,28.8,31.2,27.3,13.8,86,73,32,30.00,29.63,5,2,8,0.32
2013-11-16,39.9,36.9,33.1,32.9,29.9,27.1,82,76,63,29.84,29.65,5,1,10,0.01
2013-11-17,45.4,37.7,30.6,28.1,26.6,23.1,77,65,48,30.28,29.83,7,2,11,0.00
2013-11-18,53.1,37.5,26.7,27.4,22.1,15.9,77,57,25,30.41,30.16,7,2,8,0.00
2013-11-19,48.3,39.6,30.3,28.5,24.0,19.9,69,54,37,30.21,29.91,6,1,8,0.00
2013-11-20,46.0,37.8,30.9,31.6,27.2,22.3,77,66,46,30.01,29.85,9,2,9,0.11
2013-11-21,42.1,37.3,34.7,32.8,30.5,28.4,81,76,68,30.17,29.88,5,1,7,0.27
2013-11-22,38.9,36.1,34.4,31.6,29.3,27.4,80,76,70,30.30,30.12,8,4,16,0.28
2013-11-23,39.9,35.0,29.8,29.8,28.0,25.0,83,76,67,30.33,30.18,7,3,17,0.35
2013-11-24,29.1,26.1,23.2,24.3,20.7,17.4,85,80,76,30.33,30.23,3,1,7,0.06
2013-11-25,33.8,28.8,23.6,26.0,22.5,18.0,82,77,66,30.48,30.18,5,2,10,0.01
2013-11-26,32.2,28.6,24.1,25.8,21.0,16.3,81,73,69,30.63,30.44,3,1,6,0.00
2013-11-27,41.3,30.1,20.8,27.9,21.3,13.2,77,70,52,30.60,30.31,5,1,6,0.00
2013-11-28,46.1,34.8,22.2,28.1,19.5,11.8,72,55,34,30.41,30.20,5,2,7,0.00
2013-11-29,46.0,35.4,27.8,26.1,20.7,16.8,70,56,35,30.47,30.25,5,1,7,0.00
2013-11-30,46.1,33.8,26.6,28.2,23.3,18.6,78,66,46,30.52,30.29,7,2,11,0.00
2013-12-1,33.5,27.7,19.1,24.1,17.9,-99.9,83,72,65,30.61,30.36,11,2,12,0.00
2013-12-2,40.1,28.7,20.3,24.0,14.7,-99.9,81,66,48,30.42,29.99,8,2,10,0.00
2013-12-3,43.5,36.9,29.3,22.3,18.3,15.1,62,48,33,30.00,29.54,13,3,14,0.00
2013-12-4,37.0,25.1,6.0,27.9,9.9,-99.9,87,62,48,30.21,29.49,16,5,28,0.14
2013-12-5,23.3,12.6,0.7,9.6,-2.0,-99.9,70,56,43,30.29,30.16,7,1,8,0.01
2013-12-6,22.2,13.9,6.5,3.0,-2.5,-8.0,56,48,35,30.56,30.25,5,2,5,0.00
2013-12-7,25.6,21.8,17.8,10.8,3.8,-5.0,60,46,33,30.38,29.93,12,4,17,0.09
2013-12-8,21.6,12.1,-2.8,8.5,-5.3,-99.9,64,48,36,30.51,29.91,9,3,24,0.02
2013-12-9,17.8,4.3,-3.5,-4.0,-13.1,-99.9,63,47,33,30.98,30.45,8,2,17,0.00
2013-12-10,28.5,11.8,-1.8,1.9,-4.5,-13.0,63,49,28,31.05,30.63,8,2,10,0.00
2013-12-11,36.3,20.4,7.9,10.6,2.2,-9.1,61,46,31,30.89,30.59,6,2,6,0.00
2013-12-12,45.8,29.7,15.9,16.9,8.4,2.2,60,43,19,30.79,30.16,9,1,9,0.00
2013-12-13,33.1,28.5,19.4,17.0,12.7,7.8,61,51,37,30.30,30.08,7,2,8,0.00
2013-12-14,35.5,22.6,10.7,14.5,8.3,0.9,71,55,34,30.78,30.33,8,2,10,0.00
2013-12-15,40.9,27.0,16.1,19.3,13.6,6.7,71,58,39,30.74,30.47,5,2,7,0.00
2013-12-16,47.3,33.5,23.0,21.0,16.2,11.9,66,50,32,30.61,30.36,8,2,8,0.00
2013-12-17,47.6,32.1,20.6,21.3,15.3,10.3,68,52,26,30.68,30.41,6,1,7,0.00
2013-12-18,49.2,36.3,26.6,18.5,14.2,7.9,61,43,19,30.41,29.93,6,2,7,0.00
2013-12-19,45.8,39.3,30.7,23.5,16.4,8.2,67,40,24,29.90,29.64,6,2,12,0.00
2013-12-20,36.5,31.8,22.5,27.8,22.5,16.1,81,69,55,29.87,29.74,3,1,7,0.02
2013-12-21,29.8,23.1,15.7,18.9,13.7,8.0,77,67,52,30.06,29.76,9,3,14,0.00
2013-12-22,31.2,23.2,11.9,10.7,7.0,0.7,65,50,39,30.56,30.06,11,4,12,0.00
2013-12-23,36.2,26.7,14.1,17.8,11.2,3.1,77,53,36,30.76,30.41,9,2,16,0.00
2013-12-24,41.3,28.3,17.7,21.2,14.7,6.4,76,58,37,30.62,30.34,9,3,12,0.00
2013-12-25,38.9,24.2,14.3,11.5,3.6,-99.9,66,47,21,30.75,30.49,6,2,7,0.00
2013-12-26,43.9,28.1,17.0,15.0,9.2,4.9,66,47,24,30.74,30.43,5,2,10,0.00
2013-12-27,47.1,31.9,21.1,17.4,11.4,-99.9,63,48,27,30.63,30.32,8,2,8,0.00
2013-12-28,41.3,31.0,22.9,17.8,12.7,-99.9,65,51,35,30.32,30.02,8,1,8,0.00
2013-12-29,39.2,26.4,17.0,19.5,10.5,-99.9,75,56,37,30.46,30.04,7,2,7,0.00
2013-12-30,38.5,27.3,17.8,12.9,6.7,-2.5,66,43,26,30.64,30.31,8,2,11,0.00
2013-12-31,44.1,31.1,17.7,24.6,10.8,-99.9,69,49,30,30.58,30.16,9,2,12,0.00
2014-1-1,46.8,37.6,32.8,20.1,7.7,-10.2,55,32,12,30.34,30.13,8,3,17,0.00
2014-1-2,47.3,31.3,18.4,12.6,1.4,-99.9,44,31,17,30.54,30.30,7,2,11,0.00